createdAt,value
2023-02-21T00:00:12.731Z,49.98
2023-02-21T00:03:19.719Z,49.88
2023-02-21T00:06:06.857Z,49.80
2023-02-21T00:08:54.227Z,49.77
2023-02-21T00:11:41.134Z,49.75
2023-02-21T00:14:28.037Z,49.62
2023-02-21T00:17:15.563Z,49.49
2023-02-21T00:20:02.877Z,49.43
2023-02-21T00:22:50.394Z,49.37
2023-02-21T00:25:37.409Z,49.40
2023-02-21T00:28:24.616Z,49.32
2023-02-21T00:31:11.591Z,49.29
2023-02-21T00:33:58.741Z,49.39
2023-02-21T00:36:45.651Z,49.26
2023-02-21T00:39:33.063Z,49.26
2023-02-21T00:42:20.274Z,49.34
2023-02-21T00:45:08.409Z,49.34
2023-02-21T00:47:55.831Z,49.30
2023-02-21T00:50:43.569Z,49.22
2023-02-21T00:53:30.464Z,49.43
2023-02-21T00:56:17.781Z,49.40
2023-02-21T00:59:05.093Z,49.54
2023-02-21T01:01:52.826Z,49.39
2023-02-21T01:04:40.437Z,49.58
2023-02-21T01:07:27.260Z,49.43
2023-02-21T01:10:14.257Z,49.44
2023-02-21T01:13:03.212Z,49.54
2023-02-21T01:15:50.449Z,49.61
2023-02-21T01:18:37.544Z,49.46
2023-02-21T01:21:24.968Z,49.59
2023-02-21T01:24:13.712Z,49.57
2023-02-21T01:27:00.817Z,49.79
2023-02-21T01:29:48.650Z,49.89
2023-02-21T01:32:36.004Z,49.95
2023-02-21T01:35:23.483Z,50.19
2023-02-21T01:38:11.923Z,50.17
2023-02-21T01:40:59.654Z,50.04
2023-02-21T01:43:48.407Z,49.86
2023-02-21T01:46:37.968Z,49.98
2023-02-21T01:49:35.004Z,49.93
2023-02-21T01:52:24.339Z,49.92
2023-02-21T01:55:13.834Z,49.99
2023-02-21T01:58:04.685Z,50.00
2023-02-21T02:00:52.573Z,50.11
2023-02-21T02:03:40.897Z,49.97
2023-02-21T02:06:33.330Z,49.83
2023-02-21T02:09:40.103Z,49.92
2023-02-21T02:12:23.725Z,49.88
2023-02-21T02:15:09.610Z,49.89
2023-02-21T02:17:43.826Z,49.81
2023-02-21T02:20:38.715Z,49.78
2023-02-21T02:23:40.045Z,49.73
2023-02-21T02:26:40.782Z,49.70
2023-02-21T02:29:29.208Z,49.66
2023-02-21T02:32:03.714Z,49.37
2023-02-21T02:34:32.026Z,49.41
2023-02-21T02:37:09.506Z,49.40
2023-02-21T02:39:46.284Z,49.35
2023-02-21T02:42:30.019Z,49.27
2023-02-21T02:45:05.468Z,49.27
2023-02-21T02:47:37.939Z,49.16
2023-02-21T02:50:09.914Z,49.08
2023-02-21T02:52:39.404Z,49.11
2023-02-21T02:55:23.147Z,49.13
2023-02-21T02:57:53.179Z,49.01
2023-02-21T03:00:22.497Z,49.09
2023-02-21T03:03:31.861Z,49.11
2023-02-21T03:06:12.465Z,49.11
2023-02-21T03:09:07.347Z,49.09
2023-02-21T03:11:43.664Z,49.15
2023-02-21T03:14:17.838Z,49.05
2023-02-21T03:16:53.293Z,49.13
2023-02-21T03:19:28.313Z,49.10
2023-02-21T03:22:13.625Z,49.04
2023-02-21T03:24:45.789Z,49.11
2023-02-21T03:27:15.667Z,49.12
2023-02-21T03:30:03.146Z,48.97
2023-02-21T03:32:51.627Z,48.91
2023-02-21T03:35:21.241Z,48.89
2023-02-21T03:37:53.609Z,48.83
2023-02-21T03:40:31.147Z,48.88
2023-02-21T03:43:03.273Z,48.97
2023-02-21T03:45:35.841Z,49.05
2023-02-21T03:48:20.252Z,49.08
2023-02-21T03:50:55.470Z,49.09
2023-02-21T03:53:24.662Z,49.27
2023-02-21T03:55:53.242Z,49.24
2023-02-21T03:58:26.455Z,49.29
2023-02-21T04:00:55.072Z,49.23
2023-02-21T04:03:24.129Z,49.30
2023-02-21T04:05:56.717Z,49.29
2023-02-21T04:08:25.797Z,49.38
2023-02-21T04:10:54.199Z,49.34
2023-02-21T04:13:25.355Z,49.38
2023-02-21T04:15:54.548Z,49.41
2023-02-21T04:18:24.158Z,49.44
2023-02-21T04:20:54.180Z,49.51
2023-02-21T04:23:26.351Z,49.51
2023-02-21T04:25:56.984Z,49.64
2023-02-21T04:28:34.890Z,49.68
2023-02-21T04:31:03.614Z,49.72
2023-02-21T04:33:32.585Z,49.67
2023-02-21T04:36:01.595Z,49.69
2023-02-21T04:38:39.781Z,49.73
2023-02-21T04:41:08.377Z,49.86
2023-02-21T04:43:38.302Z,49.83
2023-02-21T04:46:06.941Z,49.88
2023-02-21T04:48:35.676Z,49.90
2023-02-21T04:51:15.186Z,49.80
2023-02-21T04:53:46.239Z,49.85
2023-02-21T04:56:15.580Z,50.01
2023-02-21T04:58:45.659Z,49.95
2023-02-21T05:01:17.105Z,49.97
2023-02-21T05:03:46.047Z,50.12
2023-02-21T05:06:19.442Z,50.18
2023-02-21T05:08:48.432Z,50.01
2023-02-21T05:11:18.110Z,50.07
2023-02-21T05:13:47.253Z,50.09
2023-02-21T05:16:15.757Z,50.16
2023-02-21T05:18:45.837Z,50.09
2023-02-21T05:21:16.525Z,50.01
2023-02-21T05:23:55.914Z,50.00
2023-02-21T05:26:27.707Z,50.04
2023-02-21T05:28:57.096Z,50.10
2023-02-21T05:31:28.321Z,50.13
2023-02-21T05:33:57.533Z,50.20
2023-02-21T05:36:26.160Z,50.25
2023-02-21T05:38:56.278Z,50.25
2023-02-21T05:41:25.164Z,50.18
2023-02-21T05:43:53.962Z,50.11
2023-02-21T05:46:28.690Z,50.04
2023-02-21T05:49:00.037Z,49.96
2023-02-21T05:51:34.978Z,49.90
2023-02-21T05:54:04.689Z,49.84
2023-02-21T05:56:39.576Z,49.79
2023-02-21T05:59:09.299Z,49.72
2023-02-21T06:01:37.932Z,49.61
2023-02-21T06:04:07.831Z,49.65
2023-02-21T06:06:36.753Z,49.63
2023-02-21T06:09:06.375Z,49.54
2023-02-21T06:11:37.933Z,49.61
2023-02-21T06:14:14.857Z,49.62
2023-02-21T06:16:43.268Z,49.63
2023-02-21T06:19:12.997Z,49.61
2023-02-21T06:21:42.267Z,49.62
2023-02-21T06:24:12.383Z,49.59
2023-02-21T06:26:42.532Z,49.66
2023-02-21T06:29:12.078Z,49.71
2023-02-21T06:31:40.647Z,49.87
2023-02-21T06:34:09.339Z,49.83
2023-02-21T06:36:39.357Z,49.93
2023-02-21T06:39:08.455Z,49.93
2023-02-21T06:41:36.737Z,49.89
2023-02-21T06:44:05.692Z,49.94
2023-02-21T06:46:36.655Z,49.97
2023-02-21T06:49:05.581Z,49.87
2023-02-21T06:51:38.625Z,49.89
2023-02-21T06:54:10.797Z,50.05
2023-02-21T06:56:39.119Z,49.83
2023-02-21T06:59:07.611Z,49.73
2023-02-21T07:01:36.316Z,49.63
2023-02-21T07:04:05.006Z,49.59
2023-02-21T07:06:33.746Z,49.48
2023-02-21T07:09:02.171Z,49.42
2023-02-21T07:11:33.563Z,49.21
2023-02-21T07:14:02.463Z,48.82
2023-02-21T07:16:30.803Z,48.64
2023-02-21T07:18:59.286Z,48.47
2023-02-21T07:21:29.205Z,47.79
2023-02-21T07:23:57.488Z,47.51
2023-02-21T07:26:25.672Z,47.09
2023-02-21T07:28:55.016Z,46.91
2023-02-21T07:31:23.844Z,46.60
2023-02-21T07:33:52.247Z,46.58
2023-02-21T07:36:20.844Z,45.86
2023-02-21T07:38:49.534Z,45.58
2023-02-21T07:41:19.347Z,45.39
2023-02-21T07:43:48.252Z,45.03
2023-02-21T07:46:18.479Z,45.15
2023-02-21T07:48:47.787Z,45.00
2023-02-21T07:51:16.413Z,44.82
2023-02-21T07:53:45.269Z,44.51
2023-02-21T07:56:13.751Z,44.40
2023-02-21T07:58:42.045Z,44.15
2023-02-21T08:01:11.334Z,43.49
2023-02-21T08:03:41.046Z,43.06
2023-02-21T08:06:11.335Z,43.15
2023-02-21T08:08:39.504Z,42.83
2023-02-21T08:11:07.836Z,42.53
2023-02-21T08:13:36.221Z,42.28
2023-02-21T08:16:04.767Z,42.24
2023-02-21T08:18:33.094Z,41.96
2023-02-21T08:21:01.371Z,42.25
2023-02-21T08:23:29.651Z,42.55
2023-02-21T08:25:58.037Z,41.81
2023-02-21T08:28:26.930Z,41.35
2023-02-21T08:30:55.732Z,41.23
2023-02-21T08:33:24.416Z,41.25
2023-02-21T08:35:52.603Z,40.38
2023-02-21T08:38:21.819Z,40.10
2023-02-21T08:40:51.639Z,39.92
2023-02-21T08:43:20.007Z,39.31
2023-02-21T08:45:48.181Z,39.19
2023-02-21T08:48:17.046Z,39.23
2023-02-21T08:50:45.610Z,39.41
2023-02-21T08:53:15.485Z,39.19
2023-02-21T08:55:44.283Z,39.29
2023-02-21T08:58:13.244Z,39.01
2023-02-21T09:00:41.608Z,38.92
2023-02-21T09:03:09.943Z,39.04
2023-02-21T09:05:39.473Z,39.01
2023-02-21T09:08:10.594Z,38.75
2023-02-21T09:10:47.844Z,38.66
2023-02-21T09:13:16.687Z,38.59
2023-02-21T09:15:46.218Z,38.18
2023-02-21T09:18:14.474Z,38.02
2023-02-21T09:20:43.070Z,38.10
2023-02-21T09:23:11.967Z,38.08
2023-02-21T09:25:40.240Z,38.11
2023-02-21T09:28:08.525Z,37.29
2023-02-21T09:30:36.851Z,37.06
2023-02-21T09:33:05.408Z,35.78
2023-02-21T09:35:33.891Z,34.44
2023-02-21T09:38:03.183Z,33.20
2023-02-21T09:40:34.854Z,33.21
2023-02-21T09:43:05.899Z,32.50
2023-02-21T09:45:37.063Z,32.41
2023-02-21T09:48:11.774Z,32.83
2023-02-21T09:50:53.360Z,32.72
2023-02-21T09:53:32.174Z,33.68
2023-02-21T09:56:18.376Z,33.93
2023-02-21T09:58:49.507Z,33.76
2023-02-21T10:01:44.093Z,34.40
2023-02-21T10:04:22.640Z,34.05
2023-02-21T10:07:04.194Z,33.33
2023-02-21T10:09:54.278Z,33.45
2023-02-21T10:12:30.945Z,32.59
2023-02-21T10:15:20.530Z,32.29
2023-02-21T10:18:13.481Z,31.53
2023-02-21T10:20:50.138Z,31.52
2023-02-21T10:23:30.001Z,31.81
2023-02-21T10:26:07.570Z,32.51
2023-02-21T10:28:37.249Z,32.37
2023-02-21T10:31:12.879Z,32.21
2023-02-21T10:33:41.635Z,32.02
2023-02-21T10:36:19.224Z,31.53
2023-02-21T10:39:15.451Z,30.80
2023-02-21T10:41:44.644Z,30.73
2023-02-21T10:44:16.320Z,30.06
2023-02-21T10:46:52.467Z,30.06
2023-02-21T10:49:24.954Z,29.99
2023-02-21T10:52:07.069Z,29.89
2023-02-21T10:54:36.454Z,28.76
2023-02-21T10:57:08.872Z,27.57
2023-02-21T10:59:41.411Z,27.01
2023-02-21T11:02:34.672Z,26.86
2023-02-21T11:05:17.673Z,26.52
2023-02-21T11:08:06.428Z,25.63
2023-02-21T11:10:42.392Z,24.50
2023-02-21T11:13:16.505Z,24.19
2023-02-21T11:15:46.296Z,23.91
2023-02-21T11:18:25.954Z,22.89
2023-02-21T11:20:54.641Z,22.74
2023-02-21T11:23:27.394Z,22.95
2023-02-21T11:26:09.514Z,22.57
2023-02-21T11:28:45.380Z,21.33
2023-02-21T11:31:32.563Z,20.56
2023-02-21T11:34:10.407Z,21.02
2023-02-21T11:36:47.310Z,20.35
2023-02-21T11:39:32.959Z,20.28
2023-02-21T11:42:04.374Z,20.26
2023-02-21T11:44:38.133Z,19.75
2023-02-21T11:47:28.601Z,20.93
2023-02-21T11:50:13.147Z,21.65
2023-02-21T11:52:51.879Z,22.66
2023-02-21T11:55:26.153Z,23.57
2023-02-21T11:58:13.716Z,24.49
2023-02-21T12:01:06.491Z,24.90
2023-02-21T12:04:14.952Z,25.55
2023-02-21T12:07:17.351Z,26.39
2023-02-21T12:10:31.514Z,26.65
2023-02-21T12:13:20.874Z,26.87
2023-02-21T12:15:49.226Z,27.25
2023-02-21T12:18:29.645Z,27.16
2023-02-21T12:21:07.848Z,27.56
2023-02-21T12:23:41.889Z,27.62
2023-02-21T12:26:30.204Z,27.53
2023-02-21T12:29:04.214Z,27.60
2023-02-21T12:31:59.861Z,27.53
2023-02-21T12:34:57.386Z,27.56
2023-02-21T12:38:04.596Z,26.45
2023-02-21T12:41:01.532Z,26.09
2023-02-21T12:43:49.413Z,25.06
2023-02-21T12:46:53.104Z,24.46
2023-02-21T12:49:26.161Z,24.56
2023-02-21T12:52:14.840Z,24.76
2023-02-21T12:54:54.826Z,25.33
2023-02-21T12:57:31.561Z,25.11
2023-02-21T13:00:08.140Z,25.27
2023-02-21T13:03:10.630Z,25.59
2023-02-21T13:06:01.602Z,25.93
2023-02-21T13:08:36.529Z,26.24
2023-02-21T13:11:17.167Z,26.30
2023-02-21T13:13:45.776Z,26.47
2023-02-21T13:16:15.098Z,26.61
2023-02-21T13:18:50.219Z,26.54
2023-02-21T13:21:37.948Z,26.33
2023-02-21T13:24:43.782Z,26.37
2023-02-21T13:27:36.021Z,26.59
2023-02-21T13:30:32.749Z,26.66
2023-02-21T13:33:01.640Z,26.69
2023-02-21T13:35:38.013Z,26.38
2023-02-21T13:38:10.897Z,26.43
2023-02-21T13:40:42.351Z,26.23
2023-02-21T13:43:16.568Z,26.41
2023-02-21T13:45:45.878Z,26.95
2023-02-21T13:48:24.006Z,27.43
2023-02-21T13:51:00.864Z,28.15
2023-02-21T13:53:53.296Z,28.68
2023-02-21T13:56:40.954Z,29.27
2023-02-21T13:59:25.273Z,29.82
2023-02-21T14:02:17.497Z,30.46
2023-02-21T14:05:00.470Z,31.46
2023-02-21T14:07:46.334Z,32.86
2023-02-21T14:10:31.963Z,35.03
2023-02-21T14:13:24.301Z,38.78
2023-02-21T14:16:09.488Z,40.98
2023-02-21T14:18:52.172Z,42.74
2023-02-21T14:21:45.631Z,44.07
2023-02-21T14:24:24.442Z,45.36
2023-02-21T14:26:52.771Z,46.10
2023-02-21T14:29:40.119Z,46.73
2023-02-21T14:32:08.566Z,47.16
2023-02-21T14:34:56.534Z,47.81
2023-02-21T14:37:30.489Z,47.91
2023-02-21T14:40:18.219Z,48.37
2023-02-21T14:42:52.944Z,49.02
2023-02-21T14:45:40.696Z,49.08
2023-02-21T14:48:34.834Z,49.18
2023-02-21T14:51:29.313Z,49.22
2023-02-21T14:54:19.698Z,50.12
2023-02-21T14:56:59.266Z,50.00
2023-02-21T15:00:02.822Z,50.12
2023-02-21T15:03:13.063Z,50.49
2023-02-21T15:05:50.360Z,50.52
2023-02-21T15:08:23.797Z,50.59
2023-02-21T15:10:58.273Z,50.88
2023-02-21T15:13:29.313Z,51.48
2023-02-21T15:16:00.873Z,51.64
2023-02-21T15:18:34.999Z,51.88
2023-02-21T15:21:11.768Z,52.13
2023-02-21T15:23:43.321Z,52.32
2023-02-21T15:26:18.556Z,52.77
2023-02-21T15:28:47.040Z,52.85
2023-02-21T15:31:18.447Z,53.29
2023-02-21T15:33:46.984Z,52.90
2023-02-21T15:36:20.800Z,53.27
2023-02-21T15:38:55.009Z,53.77
2023-02-21T15:41:46.093Z,54.21
2023-02-21T15:44:14.506Z,54.26
2023-02-21T15:46:51.386Z,54.25
2023-02-21T15:49:28.161Z,54.38
2023-02-21T15:51:56.534Z,54.75
2023-02-21T15:54:29.017Z,54.88
2023-02-21T15:57:10.700Z,54.85
2023-02-21T15:59:40.293Z,55.28
2023-02-21T16:02:11.607Z,55.09
2023-02-21T16:04:41.488Z,54.81
2023-02-21T16:07:35.605Z,54.58
2023-02-21T16:10:08.227Z,54.41
2023-02-21T16:12:40.096Z,54.28
2023-02-21T16:15:33.973Z,54.37
2023-02-21T16:18:09.720Z,54.71
2023-02-21T16:20:42.807Z,54.62
2023-02-21T16:23:19.997Z,54.49
2023-02-21T16:26:07.215Z,54.45
2023-02-21T16:28:37.484Z,54.25
2023-02-21T16:31:14.654Z,54.09
2023-02-21T16:33:43.719Z,54.02
2023-02-21T16:36:22.141Z,53.97
2023-02-21T16:38:51.034Z,54.14
2023-02-21T16:41:19.630Z,54.08
2023-02-21T16:43:48.516Z,54.17
2023-02-21T16:46:24.702Z,54.08
2023-02-21T16:48:54.511Z,54.19
2023-02-21T16:51:23.091Z,54.05
2023-02-21T16:53:51.566Z,54.23
2023-02-21T16:56:19.863Z,54.42
2023-02-21T16:58:54.480Z,54.33
2023-02-21T17:01:29.690Z,54.25
2023-02-21T17:03:58.220Z,54.18
2023-02-21T17:06:27.911Z,54.45
2023-02-21T17:09:13.423Z,54.50
2023-02-21T17:11:48.461Z,54.57
2023-02-21T17:14:16.918Z,54.40
2023-02-21T17:16:46.124Z,54.43
2023-02-21T17:19:17.477Z,54.91
2023-02-21T17:21:46.167Z,55.05
2023-02-21T17:24:15.369Z,55.15
2023-02-21T17:26:44.262Z,55.32
2023-02-21T17:29:12.745Z,55.89
2023-02-21T17:31:41.128Z,55.73
2023-02-21T17:34:09.415Z,55.67
2023-02-21T17:36:38.120Z,56.04
2023-02-21T17:39:07.070Z,56.38
2023-02-21T17:41:35.595Z,56.73
2023-02-21T17:44:04.180Z,56.50
2023-02-21T17:46:33.435Z,57.02
2023-02-21T17:49:01.668Z,56.88
2023-02-21T17:51:30.253Z,57.83
2023-02-21T17:53:58.540Z,57.76
2023-02-21T17:56:28.269Z,58.75
2023-02-21T17:58:57.554Z,59.43
2023-02-21T18:01:26.161Z,59.53
2023-02-21T18:03:54.533Z,59.86
2023-02-21T18:06:22.933Z,60.03
2023-02-21T18:08:51.296Z,60.61
2023-02-21T18:11:20.302Z,60.50
2023-02-21T18:13:48.891Z,60.54
2023-02-21T18:16:18.323Z,60.89
2023-02-21T18:18:46.675Z,60.48
2023-02-21T18:21:16.031Z,60.53
2023-02-21T18:23:46.215Z,60.68
2023-02-21T18:26:15.593Z,60.75
2023-02-21T18:28:44.011Z,61.01
2023-02-21T18:31:16.521Z,61.03
2023-02-21T18:33:46.371Z,61.29
2023-02-21T18:36:14.588Z,61.45
2023-02-21T18:38:43.086Z,61.55
2023-02-21T18:41:17.389Z,61.54
2023-02-21T18:43:46.567Z,62.41
2023-02-21T18:46:17.770Z,62.56
2023-02-21T18:48:49.197Z,63.15
2023-02-21T18:51:20.467Z,63.01
2023-02-21T18:53:49.449Z,62.63
2023-02-21T18:56:19.554Z,62.36
2023-02-21T18:58:49.671Z,62.37
2023-02-21T19:01:22.010Z,62.09
2023-02-21T19:03:51.459Z,61.91
2023-02-21T19:06:21.492Z,61.81
2023-02-21T19:08:50.707Z,61.56
2023-02-21T19:11:18.977Z,61.48
2023-02-21T19:13:50.135Z,61.28
2023-02-21T19:16:20.293Z,60.86
2023-02-21T19:18:51.604Z,61.09
2023-02-21T19:21:22.069Z,60.97
2023-02-21T19:23:50.888Z,61.15
2023-02-21T19:26:19.628Z,61.43
2023-02-21T19:28:48.105Z,61.40
2023-02-21T19:31:20.727Z,61.94
2023-02-21T19:33:49.276Z,61.67
2023-02-21T19:36:19.862Z,61.74
2023-02-21T19:38:48.886Z,61.75
2023-02-21T19:41:18.788Z,61.72
2023-02-21T19:43:47.639Z,61.61
2023-02-21T19:46:25.234Z,61.39
2023-02-21T19:48:54.212Z,60.95
2023-02-21T19:51:24.831Z,60.90
2023-02-21T19:53:53.343Z,60.76
2023-02-21T19:56:22.412Z,60.77
2023-02-21T19:58:51.741Z,60.61
2023-02-21T20:01:21.732Z,60.58
2023-02-21T20:03:50.760Z,60.43
2023-02-21T20:06:19.596Z,60.30
2023-02-21T20:08:48.890Z,59.96
2023-02-21T20:11:20.733Z,59.86
2023-02-21T20:13:49.869Z,59.64
2023-02-21T20:16:20.507Z,59.65
2023-02-21T20:18:52.034Z,59.30
2023-02-21T20:21:30.854Z,59.25
2023-02-21T20:24:00.181Z,59.08
2023-02-21T20:26:29.590Z,59.36
2023-02-21T20:28:58.150Z,59.20
2023-02-21T20:31:30.196Z,59.21
2023-02-21T20:34:03.172Z,59.41
2023-02-21T20:36:37.850Z,59.71
2023-02-21T20:39:09.556Z,60.17
2023-02-21T20:41:40.940Z,60.16
2023-02-21T20:44:09.912Z,60.26
2023-02-21T20:46:38.733Z,60.62
2023-02-21T20:49:07.651Z,60.57
2023-02-21T20:51:39.083Z,60.68
2023-02-21T20:54:11.188Z,60.53
2023-02-21T20:56:42.306Z,60.87
2023-02-21T20:59:16.334Z,60.92
2023-02-21T21:01:48.460Z,61.09
2023-02-21T21:04:23.036Z,61.65
2023-02-21T21:06:51.291Z,61.46
2023-02-21T21:09:28.925Z,61.97
2023-02-21T21:12:00.977Z,62.22
2023-02-21T21:14:31.701Z,61.94
2023-02-21T21:17:00.899Z,61.96
2023-02-21T21:19:37.259Z,61.99
2023-02-21T21:22:09.213Z,62.15
2023-02-21T21:24:38.511Z,61.74
2023-02-21T21:27:10.298Z,62.06
2023-02-21T21:29:43.685Z,62.87
2023-02-21T21:32:15.394Z,63.10
2023-02-21T21:34:46.755Z,63.10
2023-02-21T21:37:17.237Z,63.23
2023-02-21T21:39:54.526Z,63.69
2023-02-21T21:42:28.345Z,64.01
2023-02-21T21:44:57.740Z,63.98
2023-02-21T21:47:34.207Z,64.37
2023-02-21T21:50:05.141Z,64.37
2023-02-21T21:52:34.348Z,64.53
2023-02-21T21:55:03.250Z,64.32
2023-02-21T21:57:33.269Z,64.27
2023-02-21T22:00:01.958Z,64.26
2023-02-21T22:02:30.495Z,64.24
2023-02-21T22:04:58.731Z,64.37
2023-02-21T22:07:26.915Z,64.53
2023-02-21T22:09:55.506Z,64.28
2023-02-21T22:12:23.684Z,64.51
2023-02-21T22:14:52.070Z,64.52
2023-02-21T22:17:20.550Z,64.67
2023-02-21T22:19:48.937Z,64.69
2023-02-21T22:22:18.035Z,64.80
2023-02-21T22:24:46.533Z,64.92
2023-02-21T22:27:15.315Z,64.90
2023-02-21T22:29:43.693Z,65.31
2023-02-21T22:32:12.301Z,65.26
2023-02-21T22:34:40.664Z,65.25
2023-02-21T22:37:10.491Z,65.63
2023-02-21T22:39:39.179Z,66.10
2023-02-21T22:42:09.007Z,66.46
2023-02-21T22:44:37.786Z,67.14
2023-02-21T22:47:06.474Z,67.35
2023-02-21T22:49:35.267Z,67.36
2023-02-21T22:52:04.385Z,67.45
2023-02-21T22:54:32.761Z,67.59
2023-02-21T22:57:02.994Z,67.68
2023-02-21T22:59:34.381Z,67.78
2023-02-21T23:02:03.347Z,68.05
2023-02-21T23:04:37.503Z,68.22
2023-02-21T23:07:06.559Z,68.34
2023-02-21T23:09:37.384Z,68.43
2023-02-21T23:12:06.386Z,68.72
2023-02-21T23:14:35.287Z,68.60
2023-02-21T23:17:03.982Z,68.83
2023-02-21T23:19:32.555Z,68.86
2023-02-21T23:22:01.537Z,68.80
2023-02-21T23:24:29.942Z,68.69
2023-02-21T23:26:58.256Z,68.76
2023-02-21T23:29:26.705Z,68.86
2023-02-21T23:32:09.736Z,68.76
2023-02-21T23:34:41.457Z,68.80
2023-02-21T23:37:15.420Z,68.83
2023-02-21T23:39:46.873Z,68.78
2023-02-21T23:42:17.679Z,68.42
2023-02-21T23:44:48.641Z,68.22
2023-02-21T23:47:17.335Z,68.02
2023-02-21T23:49:46.029Z,68.08
2023-02-21T23:52:16.071Z,68.08
2023-02-21T23:54:44.439Z,68.02
2023-02-21T23:57:12.611Z,68.12
2023-02-21T23:59:41.813Z,67.89
